createdAt,value
2019-04-16T00:00:06.537Z,10.01
2019-04-16T00:05:02.421Z,9.88
2019-04-16T00:10:04.057Z,9.75
2019-04-16T00:14:59.431Z,9.69
2019-04-16T00:19:53.531Z,9.69
2019-04-16T00:24:48.292Z,9.58
2019-04-16T00:29:42.278Z,9.50
2019-04-16T00:34:36.438Z,9.42
2019-04-16T00:39:30.447Z,9.38
2019-04-16T00:44:24.641Z,9.29
2019-04-16T00:49:18.621Z,9.28
2019-04-16T00:54:12.633Z,9.18
2019-04-16T00:59:06.624Z,9.06
2019-04-16T01:04:00.618Z,8.91
2019-04-16T01:08:55.251Z,8.77
2019-04-16T01:13:49.406Z,8.66
2019-04-16T01:18:43.333Z,8.50
2019-04-16T01:23:37.301Z,8.35
2019-04-16T01:28:36.282Z,8.25
2019-04-16T01:33:48.722Z,8.06
2019-04-16T01:38:50.349Z,8.00
2019-04-16T01:43:44.327Z,7.94
2019-04-16T01:48:39.655Z,7.87
2019-04-16T01:53:33.808Z,7.79
2019-04-16T01:58:27.855Z,7.74
2019-04-16T02:03:21.890Z,7.63
2019-04-16T02:08:15.840Z,7.52
2019-04-16T02:13:14.566Z,7.39
2019-04-16T02:18:06.085Z,7.30
2019-04-16T02:23:00.047Z,7.20
2019-04-16T02:27:54.268Z,7.13
2019-04-16T02:32:49.895Z,7.08
2019-04-16T02:37:43.866Z,6.95
2019-04-16T02:42:38.124Z,6.89
2019-04-16T02:47:32.266Z,6.84
2019-04-16T02:52:37.010Z,6.80
2019-04-16T02:57:48.273Z,6.71
2019-04-16T03:02:44.244Z,6.63
2019-04-16T03:07:38.220Z,6.56
2019-04-16T03:12:32.382Z,6.51
2019-04-16T03:17:28.271Z,6.51
2019-04-16T03:22:22.248Z,6.45
2019-04-16T03:27:16.340Z,6.39
2019-04-16T03:32:14.295Z,6.35
2019-04-16T03:37:06.363Z,6.31
2019-04-16T03:42:00.366Z,6.24
2019-04-16T03:46:54.527Z,6.18
2019-04-16T03:51:48.489Z,6.13
2019-04-16T03:56:42.439Z,6.05
2019-04-16T04:01:36.428Z,6.01
2019-04-16T04:06:30.421Z,5.92
2019-04-16T04:11:24.386Z,5.85
2019-04-16T04:16:18.527Z,5.81
2019-04-16T04:21:12.670Z,5.75
2019-04-16T04:26:08.919Z,5.72
2019-04-16T04:31:02.680Z,5.73
2019-04-16T04:35:56.624Z,5.74
2019-04-16T04:40:51.541Z,5.75
2019-04-16T04:45:45.633Z,5.72
2019-04-16T04:50:39.616Z,5.73
2019-04-16T04:55:33.934Z,5.73
2019-04-16T05:00:27.906Z,5.78
2019-04-16T05:05:26.764Z,5.83
2019-04-16T05:10:20.726Z,5.94
2019-04-16T05:15:14.687Z,6.06
2019-04-16T05:20:08.845Z,6.21
2019-04-16T05:25:04.062Z,6.54
2019-04-16T05:29:58.017Z,6.67
2019-04-16T05:34:52.107Z,6.63
2019-04-16T05:39:46.175Z,6.69
2019-04-16T05:44:40.199Z,6.81
2019-04-16T05:49:34.182Z,6.99
2019-04-16T05:54:32.769Z,7.08
2019-04-16T05:59:26.745Z,7.21
2019-04-16T06:04:24.313Z,7.40
2019-04-16T06:09:16.583Z,7.55
2019-04-16T06:14:17.033Z,7.68
2019-04-16T06:19:11.580Z,7.85
2019-04-16T06:24:08.008Z,8.04
2019-04-16T06:29:22.081Z,8.20
2019-04-16T06:34:27.094Z,8.43
2019-04-16T06:39:22.966Z,8.67
2019-04-16T06:44:19.047Z,9.07
2019-04-16T06:49:24.070Z,9.51
2019-04-16T06:54:32.257Z,9.76
2019-04-16T06:59:29.851Z,10.11
2019-04-16T07:04:24.388Z,10.51
2019-04-16T07:09:23.395Z,10.80
2019-04-16T07:14:16.805Z,11.03
2019-04-16T07:19:11.656Z,11.35
2019-04-16T07:24:05.897Z,11.64
2019-04-16T07:29:04.811Z,11.89
2019-04-16T07:34:12.821Z,12.15
2019-04-16T07:39:28.857Z,12.39
2019-04-16T07:44:12.696Z,12.69
2019-04-16T07:49:26.377Z,12.96
2019-04-16T07:54:35.081Z,13.20
2019-04-16T07:59:31.988Z,13.44
2019-04-16T08:04:29.199Z,13.71
2019-04-16T08:09:23.257Z,13.96
2019-04-16T08:14:17.207Z,14.27
2019-04-16T08:19:12.236Z,14.38
2019-04-16T08:24:09.299Z,14.60
2019-04-16T08:29:03.457Z,14.82
2019-04-16T08:33:57.414Z,15.00
2019-04-16T08:38:51.388Z,15.23
2019-04-16T08:43:45.494Z,15.41
2019-04-16T08:48:39.708Z,15.56
2019-04-16T08:53:35.578Z,15.64
2019-04-16T08:58:29.703Z,15.91
2019-04-16T09:03:26.859Z,16.18
2019-04-16T09:08:35.332Z,16.33
2019-04-16T09:13:31.286Z,16.34
2019-04-16T09:18:30.159Z,16.52
2019-04-16T09:23:26.667Z,16.65
2019-04-16T09:28:25.950Z,16.83
2019-04-16T09:33:26.276Z,17.01
2019-04-16T09:38:22.209Z,17.19
2019-04-16T09:43:18.590Z,17.32
2019-04-16T09:48:12.706Z,17.53
2019-04-16T09:53:06.943Z,17.90
2019-04-16T09:58:05.866Z,18.15
2019-04-16T10:03:00.845Z,18.46
2019-04-16T10:07:57.000Z,18.46
2019-04-16T10:12:50.868Z,18.52
2019-04-16T10:17:44.833Z,18.75
2019-04-16T10:22:38.936Z,19.14
2019-04-16T10:27:37.543Z,19.77
2019-04-16T10:32:31.539Z,19.96
2019-04-16T10:37:25.638Z,20.40
2019-04-16T10:42:27.477Z,20.89
2019-04-16T10:47:23.541Z,21.33
2019-04-16T10:52:36.147Z,21.88
2019-04-16T10:57:50.384Z,22.97
2019-04-16T11:02:52.025Z,24.60
2019-04-16T11:07:50.902Z,26.60
2019-04-16T11:12:45.081Z,28.39
2019-04-16T11:17:39.296Z,30.52
2019-04-16T11:22:33.253Z,31.37
2019-04-16T11:27:27.484Z,31.42
2019-04-16T11:32:30.551Z,32.50
2019-04-16T11:37:24.519Z,32.95
2019-04-16T11:42:18.635Z,35.14
2019-04-16T11:47:12.858Z,34.11
2019-04-16T11:52:07.150Z,36.05
2019-04-16T11:57:01.099Z,35.92
2019-04-16T12:01:59.983Z,36.58
2019-04-16T12:07:11.043Z,36.83
2019-04-16T12:12:19.016Z,38.12
2019-04-16T12:17:15.143Z,37.65
2019-04-16T12:22:15.930Z,38.56
2019-04-16T12:27:28.632Z,39.51
2019-04-16T12:32:30.705Z,37.57
2019-04-16T12:37:43.629Z,38.79
2019-04-16T12:42:42.609Z,38.95
2019-04-16T12:47:41.634Z,39.57
2019-04-16T12:52:55.569Z,39.16
2019-04-16T12:58:00.903Z,35.86
2019-04-16T13:02:56.807Z,34.83
2019-04-16T13:07:55.441Z,37.50
2019-04-16T13:12:57.335Z,39.71
2019-04-16T13:17:59.246Z,38.82
2019-04-16T13:22:58.166Z,38.99
2019-04-16T13:27:52.662Z,40.39
2019-04-16T13:32:46.625Z,40.92
2019-04-16T13:37:40.691Z,38.94
2019-04-16T13:42:34.803Z,39.01
2019-04-16T13:47:28.886Z,36.88
2019-04-16T13:52:25.251Z,39.42
2019-04-16T13:57:23.398Z,37.20
2019-04-16T14:02:22.457Z,38.31
2019-04-16T14:07:16.581Z,35.70
2019-04-16T14:12:10.564Z,34.08
2019-04-16T14:17:09.694Z,36.28
2019-04-16T14:22:00.672Z,35.94
2019-04-16T14:26:54.826Z,36.66
2019-04-16T14:31:49.027Z,33.23
2019-04-16T14:36:43.691Z,33.61
2019-04-16T14:41:37.788Z,33.68
2019-04-16T14:46:31.912Z,32.16
2019-04-16T14:51:25.892Z,33.13
2019-04-16T14:56:21.785Z,31.53
2019-04-16T15:01:34.108Z,34.70
2019-04-16T15:06:29.976Z,35.45
2019-04-16T15:11:28.652Z,32.70
2019-04-16T15:16:27.393Z,33.19
2019-04-16T15:21:29.061Z,34.96
2019-04-16T15:26:34.293Z,33.39
2019-04-16T15:31:33.609Z,33.68
2019-04-16T15:36:32.312Z,31.38
2019-04-16T15:41:45.387Z,34.70
2019-04-16T15:46:57.982Z,36.43
2019-04-16T15:52:00.138Z,32.62
2019-04-16T15:56:56.188Z,31.90
2019-04-16T16:02:09.146Z,30.95
2019-04-16T16:07:07.928Z,27.80
2019-04-16T16:12:05.599Z,27.80
2019-04-16T16:16:59.581Z,27.62
2019-04-16T16:21:53.560Z,23.99
2019-04-16T16:26:47.681Z,22.09
2019-04-16T16:31:41.794Z,21.60
2019-04-16T16:36:36.830Z,21.85
2019-04-16T16:41:31.697Z,20.83
2019-04-16T16:46:30.651Z,19.94
2019-04-16T16:51:25.075Z,19.42
2019-04-16T16:56:24.279Z,18.83
2019-04-16T17:01:34.732Z,17.64
2019-04-16T17:06:30.552Z,15.86
2019-04-16T17:11:24.674Z,15.88
2019-04-16T17:16:18.761Z,16.18
2019-04-16T17:21:12.860Z,16.32
2019-04-16T17:26:06.832Z,16.24
2019-04-16T17:31:00.936Z,16.43
2019-04-16T17:35:55.331Z,16.29
2019-04-16T17:41:00.489Z,16.25
2019-04-16T17:45:56.574Z,16.26
2019-04-16T17:51:09.200Z,16.02
2019-04-16T17:56:17.755Z,15.82
2019-04-16T18:01:19.782Z,15.64
2019-04-16T18:06:18.332Z,15.55
2019-04-16T18:11:19.987Z,15.45
2019-04-16T18:16:21.829Z,15.27
2019-04-16T18:21:23.512Z,15.10
2019-04-16T18:26:37.577Z,15.14
2019-04-16T18:31:39.461Z,15.13
2019-04-16T18:36:38.407Z,14.99
2019-04-16T18:41:40.154Z,14.98
2019-04-16T18:46:41.825Z,14.88
2019-04-16T18:51:36.148Z,14.85
2019-04-16T18:56:30.246Z,14.79
2019-04-16T19:01:29.690Z,14.72
2019-04-16T19:06:22.335Z,14.62
2019-04-16T19:11:20.236Z,14.54
2019-04-16T19:16:12.972Z,14.46
2019-04-16T19:21:07.191Z,14.45
2019-04-16T19:26:01.415Z,14.43
2019-04-16T19:30:55.434Z,14.31
2019-04-16T19:35:51.957Z,14.18
2019-04-16T19:40:47.718Z,14.11
2019-04-16T19:45:43.671Z,14.00
2019-04-16T19:50:37.890Z,13.91
2019-04-16T19:55:32.075Z,13.89
2019-04-16T20:00:26.397Z,13.86
2019-04-16T20:05:20.774Z,13.77
2019-04-16T20:10:15.127Z,13.71
2019-04-16T20:15:09.856Z,13.66
2019-04-16T20:20:04.874Z,13.51
2019-04-16T20:24:59.274Z,13.35
2019-04-16T20:29:53.579Z,13.29
2019-04-16T20:34:47.709Z,13.23
2019-04-16T20:39:41.783Z,13.15
2019-04-16T20:44:35.875Z,13.14
2019-04-16T20:49:30.019Z,13.05
2019-04-16T20:54:24.113Z,13.02
2019-04-16T20:59:18.214Z,12.90
2019-04-16T21:04:12.377Z,12.87
2019-04-16T21:09:06.889Z,12.77
2019-04-16T21:14:01.222Z,12.72
2019-04-16T21:18:55.521Z,12.65
2019-04-16T21:23:49.782Z,12.50
2019-04-16T21:28:45.659Z,12.46
2019-04-16T21:33:44.344Z,12.40
2019-04-16T21:38:46.154Z,12.36
2019-04-16T21:43:40.470Z,12.23
2019-04-16T21:48:34.512Z,12.21
2019-04-16T21:53:28.844Z,12.12
2019-04-16T21:58:23.104Z,12.09
2019-04-16T22:03:27.943Z,12.04
2019-04-16T22:08:22.147Z,11.96
2019-04-16T22:13:19.166Z,11.95
2019-04-16T22:18:11.979Z,11.89
2019-04-16T22:23:06.031Z,11.78
2019-04-16T22:28:00.035Z,11.70
2019-04-16T22:32:54.041Z,11.70
2019-04-16T22:37:48.016Z,11.59
2019-04-16T22:42:46.842Z,11.52
2019-04-16T22:47:42.795Z,11.45
2019-04-16T22:52:36.773Z,11.39
2019-04-16T22:57:31.189Z,11.33
2019-04-16T23:02:27.827Z,11.35
2019-04-16T23:07:21.823Z,11.35
2019-04-16T23:12:15.939Z,11.48
2019-04-16T23:17:13.142Z,11.48
2019-04-16T23:22:06.230Z,11.51
2019-04-16T23:27:04.259Z,11.54
2019-04-16T23:31:56.308Z,11.59
2019-04-16T23:36:50.389Z,11.58
2019-04-16T23:41:47.957Z,11.61
2019-04-16T23:46:44.929Z,11.77
2019-04-16T23:51:40.855Z,11.85
2019-04-16T23:56:39.827Z,11.93
